createdAt,value
2022-12-24T00:02:56.634Z,4.29
2022-12-24T00:05:42.535Z,3.79
2022-12-24T00:08:28.595Z,4.03
2022-12-24T00:11:14.181Z,4.03
2022-12-24T00:14:00.637Z,4.16
2022-12-24T00:16:46.750Z,3.67
2022-12-24T00:19:33.295Z,4.04
2022-12-24T00:22:19.078Z,4.17
2022-12-24T00:25:05.709Z,3.99
2022-12-24T00:27:51.661Z,3.92
2022-12-24T00:30:42.262Z,3.98
2022-12-24T00:33:28.385Z,3.79
2022-12-24T00:36:15.961Z,3.94
2022-12-24T00:39:01.928Z,3.68
2022-12-24T00:41:48.051Z,3.93
2022-12-24T00:44:33.991Z,4.09
2022-12-24T00:47:20.757Z,3.98
2022-12-24T00:50:08.240Z,3.98
2022-12-24T00:52:54.372Z,3.88
2022-12-24T00:55:40.436Z,3.91
2022-12-24T00:58:26.695Z,3.75
2022-12-24T01:01:12.943Z,4.04
2022-12-24T01:04:22.574Z,3.44
2022-12-24T01:07:08.617Z,4.03
2022-12-24T01:09:55.203Z,4.05
2022-12-24T01:12:42.669Z,3.93
2022-12-24T01:15:31.635Z,3.49
2022-12-24T01:18:17.779Z,3.83
2022-12-24T01:21:04.934Z,3.77
2022-12-24T01:23:50.960Z,3.43
2022-12-24T01:26:36.998Z,3.79
2022-12-24T01:29:22.858Z,3.76
2022-12-24T01:32:09.454Z,3.52
2022-12-24T01:34:55.218Z,3.55
2022-12-24T01:37:43.177Z,3.70
2022-12-24T01:40:47.557Z,3.98
2022-12-24T01:43:34.149Z,3.70
2022-12-24T01:46:26.917Z,3.44
2022-12-24T01:49:14.818Z,3.50
2022-12-24T01:52:04.177Z,3.64
2022-12-24T01:54:54.104Z,3.69
2022-12-24T01:58:02.136Z,3.77
2022-12-24T02:00:48.424Z,3.61
2022-12-24T02:03:34.426Z,3.36
2022-12-24T02:06:21.603Z,3.58
2022-12-24T02:09:07.800Z,3.78
2022-12-24T02:11:54.240Z,3.85
2022-12-24T02:14:40.405Z,3.74
2022-12-24T02:17:54.380Z,3.84
2022-12-24T02:20:39.998Z,3.82
2022-12-24T02:23:38.115Z,3.80
2022-12-24T02:26:42.241Z,3.64
2022-12-24T02:29:59.683Z,3.77
2022-12-24T02:32:53.553Z,3.59
2022-12-24T02:35:50.549Z,3.63
2022-12-24T02:38:45.496Z,3.42
2022-12-24T02:41:54.353Z,3.47
2022-12-24T02:44:46.239Z,3.17
2022-12-24T02:47:34.543Z,3.17
2022-12-24T02:50:20.597Z,3.48
2022-12-24T02:53:11.025Z,3.64
2022-12-24T02:55:59.626Z,3.70
2022-12-24T02:58:46.612Z,3.71
2022-12-24T03:01:52.707Z,3.70
2022-12-24T03:05:11.300Z,3.70
2022-12-24T03:08:25.466Z,3.67
2022-12-24T03:11:15.473Z,3.36
2022-12-24T03:14:02.057Z,3.65
2022-12-24T03:16:49.194Z,3.67
2022-12-24T03:19:35.471Z,3.65
2022-12-24T03:22:22.662Z,3.29
2022-12-24T03:25:09.070Z,3.53
2022-12-24T03:27:57.215Z,3.35
2022-12-24T03:30:45.697Z,3.26
2022-12-24T03:33:32.119Z,3.35
2022-12-24T03:36:18.455Z,3.10
2022-12-24T03:39:05.889Z,3.11
2022-12-24T03:41:51.416Z,2.97
2022-12-24T03:44:40.293Z,3.09
2022-12-24T03:47:26.171Z,3.12
2022-12-24T03:50:12.535Z,3.29
2022-12-24T03:52:58.380Z,3.26
2022-12-24T03:55:45.157Z,3.27
2022-12-24T03:58:30.793Z,3.42
2022-12-24T04:01:18.177Z,2.95
2022-12-24T04:04:04.724Z,3.24
2022-12-24T04:06:51.141Z,3.35
2022-12-24T04:09:36.938Z,3.27
2022-12-24T04:12:23.574Z,3.17
2022-12-24T04:15:09.820Z,2.81
2022-12-24T04:17:56.225Z,3.15
2022-12-24T04:20:42.535Z,3.00
2022-12-24T04:23:31.926Z,3.31
2022-12-24T04:26:18.029Z,3.04
2022-12-24T04:29:04.267Z,3.06
2022-12-24T04:31:50.270Z,2.90
2022-12-24T04:34:37.119Z,3.09
2022-12-24T04:37:23.300Z,2.66
2022-12-24T04:40:10.031Z,3.15
2022-12-24T04:42:55.526Z,2.84
2022-12-24T04:45:41.725Z,2.73
2022-12-24T04:48:27.853Z,2.54
2022-12-24T04:51:15.195Z,2.92
2022-12-24T04:54:01.264Z,3.04
2022-12-24T04:56:47.523Z,3.01
2022-12-24T04:59:33.506Z,2.86
2022-12-24T05:02:20.169Z,2.68
2022-12-24T05:05:06.336Z,3.01
2022-12-24T05:07:52.878Z,3.02
2022-12-24T05:10:38.830Z,3.13
2022-12-24T05:13:31.872Z,3.11
2022-12-24T05:16:23.831Z,2.65
2022-12-24T05:19:10.421Z,2.60
2022-12-24T05:22:14.889Z,3.04
2022-12-24T05:25:20.130Z,2.36
2022-12-24T05:28:06.058Z,2.31
2022-12-24T05:30:54.588Z,2.61
2022-12-24T05:33:40.799Z,2.73
2022-12-24T05:36:27.303Z,2.32
2022-12-24T05:39:17.515Z,3.01
2022-12-24T05:42:04.207Z,2.70
2022-12-24T05:44:50.108Z,2.82
2022-12-24T05:47:42.919Z,2.60
2022-12-24T05:50:29.137Z,2.99
2022-12-24T05:53:25.018Z,2.85
2022-12-24T05:56:17.175Z,2.41
2022-12-24T05:59:04.001Z,2.47
2022-12-24T06:01:49.657Z,2.58
2022-12-24T06:04:35.802Z,2.69
2022-12-24T06:07:22.127Z,2.60
2022-12-24T06:10:10.571Z,2.82
2022-12-24T06:12:56.586Z,2.56
2022-12-24T06:15:42.992Z,2.72
2022-12-24T06:18:32.635Z,2.92
2022-12-24T06:21:20.014Z,2.26
2022-12-24T06:24:06.093Z,2.25
2022-12-24T06:26:51.968Z,2.46
2022-12-24T06:29:38.041Z,2.46
2022-12-24T06:32:24.096Z,2.53
2022-12-24T06:35:09.896Z,2.42
2022-12-24T06:37:56.522Z,2.61
2022-12-24T06:40:43.818Z,2.52
2022-12-24T06:43:30.145Z,2.63
2022-12-24T06:46:16.840Z,2.56
2022-12-24T06:49:02.750Z,2.47
2022-12-24T06:51:48.649Z,2.69
2022-12-24T06:54:35.168Z,2.76
2022-12-24T06:57:20.887Z,2.35
2022-12-24T07:00:10.807Z,2.34
2022-12-24T07:02:56.574Z,2.56
2022-12-24T07:05:43.081Z,2.80
2022-12-24T07:08:29.541Z,2.33
2022-12-24T07:11:16.300Z,2.70
2022-12-24T07:14:02.913Z,2.54
2022-12-24T07:16:55.277Z,2.80
2022-12-24T07:19:44.532Z,2.37
2022-12-24T07:22:31.204Z,2.80
2022-12-24T07:25:20.291Z,2.55
2022-12-24T07:28:06.268Z,2.84
2022-12-24T07:30:52.096Z,2.84
2022-12-24T07:33:38.302Z,2.22
2022-12-24T07:36:24.581Z,2.48
2022-12-24T07:39:10.781Z,2.87
2022-12-24T07:41:56.499Z,2.51
2022-12-24T07:44:44.433Z,2.62
2022-12-24T07:47:30.409Z,2.53
2022-12-24T07:50:17.082Z,2.66
2022-12-24T07:53:02.934Z,2.84
2022-12-24T07:55:49.543Z,2.88
2022-12-24T07:58:35.253Z,2.94
2022-12-24T08:01:21.363Z,2.35
2022-12-24T08:04:07.709Z,2.54
2022-12-24T08:06:53.976Z,2.70
2022-12-24T08:09:40.119Z,2.35
2022-12-24T08:12:26.949Z,2.91
2022-12-24T08:15:14.579Z,2.53
2022-12-24T08:18:01.257Z,2.50
2022-12-24T08:20:47.292Z,2.55
2022-12-24T08:23:34.002Z,2.95
2022-12-24T08:26:19.731Z,2.99
2022-12-24T08:29:06.576Z,2.53
2022-12-24T08:31:52.350Z,2.64
2022-12-24T08:34:38.560Z,2.51
2022-12-24T08:37:24.326Z,2.53
2022-12-24T08:40:11.190Z,2.54
2022-12-24T08:42:56.910Z,2.58
2022-12-24T08:45:48.296Z,2.99
2022-12-24T08:48:35.243Z,2.88
2022-12-24T08:51:21.485Z,3.04
2022-12-24T08:54:07.191Z,2.59
2022-12-24T08:56:53.094Z,2.64
2022-12-24T08:59:39.046Z,2.54
2022-12-24T09:02:25.740Z,2.78
2022-12-24T09:05:11.746Z,2.53
2022-12-24T09:07:58.373Z,2.95
2022-12-24T09:10:44.585Z,2.88
2022-12-24T09:13:31.536Z,2.90
2022-12-24T09:16:18.359Z,3.06
2022-12-24T09:19:04.790Z,2.63
2022-12-24T09:21:51.031Z,2.88
2022-12-24T09:24:37.200Z,3.13
2022-12-24T09:27:25.242Z,2.58
2022-12-24T09:30:13.540Z,3.15
2022-12-24T09:32:59.877Z,2.81
2022-12-24T09:35:46.803Z,2.72
2022-12-24T09:38:33.542Z,2.59
2022-12-24T09:41:22.579Z,3.34
2022-12-24T09:44:35.628Z,2.92
2022-12-24T09:47:27.166Z,3.30
2022-12-24T09:50:25.089Z,3.33
2022-12-24T09:53:22.899Z,3.28
2022-12-24T09:56:15.088Z,3.41
2022-12-24T09:59:04.148Z,3.14
2022-12-24T10:01:53.036Z,3.47
2022-12-24T10:04:39.497Z,3.39
2022-12-24T10:07:52.054Z,2.97
2022-12-24T10:10:43.621Z,3.48
2022-12-24T10:13:41.520Z,3.39
2022-12-24T10:16:36.912Z,3.33
2022-12-24T10:19:46.195Z,3.28
2022-12-24T10:23:03.729Z,3.12
2022-12-24T10:26:04.992Z,3.26
2022-12-24T10:28:59.194Z,3.24
2022-12-24T10:31:58.185Z,3.08
2022-12-24T10:35:17.013Z,2.91
2022-12-24T10:38:04.496Z,3.16
2022-12-24T10:40:53.545Z,2.83
2022-12-24T10:43:42.599Z,3.31
2022-12-24T10:46:35.566Z,3.33
2022-12-24T10:49:29.696Z,3.17
2022-12-24T10:52:20.282Z,2.76
2022-12-24T10:55:24.411Z,2.97
2022-12-24T10:58:17.808Z,2.96
2022-12-24T11:01:04.176Z,3.03
2022-12-24T11:04:02.352Z,3.30
2022-12-24T11:06:55.998Z,3.30
2022-12-24T11:09:43.754Z,3.41
2022-12-24T11:12:35.561Z,3.13
2022-12-24T11:15:34.887Z,3.40
2022-12-24T11:18:20.786Z,3.48
2022-12-24T11:21:07.159Z,3.32
2022-12-24T11:23:59.494Z,2.88
2022-12-24T11:26:46.155Z,3.12
2022-12-24T11:29:32.282Z,2.85
2022-12-24T11:32:23.329Z,3.19
2022-12-24T11:35:21.995Z,2.93
2022-12-24T11:38:08.117Z,3.27
2022-12-24T11:41:12.425Z,3.48
2022-12-24T11:44:04.045Z,3.52
2022-12-24T11:46:53.339Z,3.21
2022-12-24T11:49:40.228Z,3.08
2022-12-24T11:52:27.985Z,3.28
2022-12-24T11:55:19.581Z,3.28
2022-12-24T11:58:23.072Z,3.38
2022-12-24T12:01:35.606Z,3.55
2022-12-24T12:04:30.489Z,3.31
2022-12-24T12:07:30.739Z,3.14
2022-12-24T12:10:26.142Z,3.36
2022-12-24T12:13:18.865Z,3.15
2022-12-24T12:16:16.532Z,3.48
2022-12-24T12:19:11.435Z,3.25
2022-12-24T12:22:03.665Z,2.92
2022-12-24T12:24:52.052Z,3.16
2022-12-24T12:27:43.686Z,3.20
2022-12-24T12:30:32.408Z,2.82
2022-12-24T12:33:32.254Z,3.34
2022-12-24T12:36:21.680Z,2.98
2022-12-24T12:39:09.889Z,3.10
2022-12-24T12:42:19.920Z,3.32
2022-12-24T12:45:34.326Z,3.38
2022-12-24T12:48:36.103Z,2.84
2022-12-24T12:51:28.054Z,2.82
2022-12-24T12:54:26.224Z,3.43
2022-12-24T12:57:15.890Z,3.22
2022-12-24T13:00:06.246Z,3.19
2022-12-24T13:03:14.271Z,3.38
2022-12-24T13:06:12.830Z,3.39
2022-12-24T13:09:20.914Z,3.39
2022-12-24T13:12:39.598Z,2.71
2022-12-24T13:15:53.112Z,3.24
2022-12-24T13:18:54.743Z,3.40
2022-12-24T13:21:44.266Z,2.94
2022-12-24T13:24:36.197Z,3.15
2022-12-24T13:27:33.086Z,2.99
2022-12-24T13:30:40.535Z,2.71
2022-12-24T13:33:35.620Z,3.44
2022-12-24T13:36:23.153Z,2.86
2022-12-24T13:39:19.383Z,3.19
2022-12-24T13:42:06.987Z,3.18
2022-12-24T13:45:30.977Z,2.94
2022-12-24T13:48:32.809Z,2.87
2022-12-24T13:51:19.623Z,3.31
2022-12-24T13:54:12.928Z,2.93
2022-12-24T13:57:00.379Z,2.95
2022-12-24T13:59:46.926Z,3.25
2022-12-24T14:02:37.736Z,3.20
2022-12-24T14:05:35.089Z,3.20
2022-12-24T14:08:24.144Z,3.14
2022-12-24T14:11:13.592Z,3.12
2022-12-24T14:14:06.181Z,3.08
2022-12-24T14:16:53.834Z,2.58
2022-12-24T14:19:45.382Z,3.05
2022-12-24T14:22:57.446Z,2.92
2022-12-24T14:25:44.222Z,2.89
2022-12-24T14:28:42.326Z,2.63
2022-12-24T14:31:28.476Z,2.79
2022-12-24T14:34:16.227Z,2.77
2022-12-24T14:37:04.678Z,2.51
2022-12-24T14:39:57.408Z,2.33
2022-12-24T14:43:19.509Z,2.55
2022-12-24T14:46:51.683Z,2.30
2022-12-24T14:50:16.324Z,2.92
2022-12-24T14:53:21.790Z,2.93
2022-12-24T14:56:16.369Z,2.51
2022-12-24T14:59:14.813Z,2.66
2022-12-24T15:02:24.091Z,2.68
2022-12-24T15:05:17.486Z,2.91
2022-12-24T15:08:09.835Z,2.55
2022-12-24T15:11:00.666Z,2.48
2022-12-24T15:13:49.535Z,2.92
2022-12-24T15:16:37.314Z,2.62
2022-12-24T15:19:29.434Z,2.95
2022-12-24T15:22:28.602Z,2.94
2022-12-24T15:25:22.069Z,2.83
2022-12-24T15:28:20.666Z,2.44
2022-12-24T15:31:20.482Z,2.91
2022-12-24T15:34:30.859Z,2.46
2022-12-24T15:37:26.504Z,2.44
2022-12-24T15:40:25.323Z,2.62
2022-12-24T15:43:11.547Z,2.29
2022-12-24T15:46:00.655Z,2.58
2022-12-24T15:48:49.085Z,2.43
2022-12-24T15:51:40.317Z,2.46
2022-12-24T15:54:26.770Z,2.68
2022-12-24T15:57:25.436Z,1.88
2022-12-24T16:00:22.835Z,2.32
2022-12-24T16:03:23.644Z,2.61
2022-12-24T16:06:15.321Z,2.59
2022-12-24T16:09:01.714Z,2.07
2022-12-24T16:11:47.314Z,2.55
2022-12-24T16:14:36.295Z,2.30
2022-12-24T16:17:24.996Z,2.38
2022-12-24T16:20:18.948Z,2.12
2022-12-24T16:23:04.947Z,2.16
2022-12-24T16:25:52.789Z,2.02
2022-12-24T16:28:38.567Z,2.60
2022-12-24T16:31:33.801Z,2.34
2022-12-24T16:34:32.070Z,1.96
2022-12-24T16:37:18.073Z,2.61
2022-12-24T16:40:03.958Z,2.60
2022-12-24T16:43:08.873Z,2.23
2022-12-24T16:46:00.747Z,2.47
2022-12-24T16:48:49.135Z,2.63
2022-12-24T16:51:34.779Z,2.66
2022-12-24T16:54:21.398Z,2.39
2022-12-24T16:57:09.773Z,2.71
2022-12-24T16:59:56.611Z,2.15
2022-12-24T17:02:42.950Z,2.46
2022-12-24T17:05:31.683Z,2.30
2022-12-24T17:08:19.136Z,2.46
2022-12-24T17:11:12.954Z,2.74
2022-12-24T17:14:08.331Z,2.26
2022-12-24T17:16:57.952Z,2.30
2022-12-24T17:19:43.865Z,2.65
2022-12-24T17:22:30.958Z,2.35
2022-12-24T17:25:17.090Z,2.03
2022-12-24T17:28:04.867Z,2.35
2022-12-24T17:30:50.824Z,2.11
2022-12-24T17:33:37.670Z,1.77
2022-12-24T17:36:23.521Z,1.77
2022-12-24T17:39:10.008Z,1.89
2022-12-24T17:41:57.222Z,2.57
2022-12-24T17:44:45.005Z,2.36
2022-12-24T17:47:30.963Z,2.59
2022-12-24T17:50:18.131Z,2.55
2022-12-24T17:53:04.243Z,2.54
2022-12-24T17:55:51.808Z,2.51
2022-12-24T17:58:40.959Z,2.12
2022-12-24T18:01:31.048Z,2.45
2022-12-24T18:04:17.077Z,2.48
2022-12-24T18:07:03.895Z,2.29
2022-12-24T18:09:49.623Z,2.11
2022-12-24T18:12:37.191Z,1.85
2022-12-24T18:15:23.559Z,2.02
2022-12-24T18:18:10.391Z,2.29
2022-12-24T18:21:02.226Z,2.03
2022-12-24T18:23:50.499Z,2.52
2022-12-24T18:26:36.365Z,2.04
2022-12-24T18:29:23.015Z,2.16
2022-12-24T18:32:13.031Z,2.03
2022-12-24T18:34:59.733Z,1.88
2022-12-24T18:37:46.191Z,2.13
2022-12-24T18:40:32.323Z,1.91
2022-12-24T18:43:18.190Z,2.37
2022-12-24T18:46:09.338Z,2.00
2022-12-24T18:48:56.012Z,2.23
2022-12-24T18:51:43.080Z,2.08
2022-12-24T18:54:29.090Z,2.35
2022-12-24T18:57:15.151Z,2.18
2022-12-24T19:00:00.739Z,2.18
2022-12-24T19:02:54.791Z,2.37
2022-12-24T19:05:40.874Z,1.75
2022-12-24T19:08:56.379Z,2.44
2022-12-24T19:11:34.777Z,2.67
2022-12-24T19:14:20.946Z,2.72
2022-12-24T19:17:06.721Z,2.74
2022-12-24T19:19:52.886Z,2.77
2022-12-24T19:22:38.694Z,2.42
2022-12-24T19:25:24.807Z,2.42
2022-12-24T19:28:10.775Z,2.88
2022-12-24T19:31:10.128Z,2.44
2022-12-24T19:33:56.930Z,2.92
2022-12-24T19:36:48.214Z,2.61
2022-12-24T19:39:34.051Z,2.53
2022-12-24T19:42:20.376Z,2.25
2022-12-24T19:45:07.138Z,2.93
2022-12-24T19:47:53.307Z,2.26
2022-12-24T19:50:39.087Z,2.58
2022-12-24T19:53:25.525Z,2.67
2022-12-24T19:56:15.008Z,3.03
2022-12-24T19:59:02.326Z,2.92
2022-12-24T20:01:48.369Z,3.03
2022-12-24T20:04:34.935Z,2.79
2022-12-24T20:07:20.555Z,2.70
2022-12-24T20:10:07.317Z,2.62
2022-12-24T20:12:53.223Z,2.61
2022-12-24T20:15:41.463Z,2.60
2022-12-24T20:18:27.401Z,2.79
2022-12-24T20:21:13.516Z,2.54
2022-12-24T20:23:59.456Z,2.60
2022-12-24T20:26:46.761Z,2.28
2022-12-24T20:29:32.437Z,2.51
2022-12-24T20:32:18.525Z,2.36
2022-12-24T20:35:04.501Z,2.46
2022-12-24T20:37:50.415Z,2.50
2022-12-24T20:40:45.015Z,2.39
2022-12-24T20:43:45.040Z,2.51
2022-12-24T20:46:34.106Z,2.86
2022-12-24T20:49:20.162Z,2.70
2022-12-24T20:52:06.091Z,2.32
2022-12-24T20:54:52.809Z,2.38
2022-12-24T20:57:38.797Z,2.97
2022-12-24T21:00:26.329Z,3.10
2022-12-24T21:03:12.782Z,2.69
2022-12-24T21:06:04.840Z,2.69
2022-12-24T21:08:52.090Z,3.13
2022-12-24T21:11:51.862Z,2.61
2022-12-24T21:14:39.527Z,2.42
2022-12-24T21:17:29.750Z,2.76
2022-12-24T21:20:16.621Z,3.13
2022-12-24T21:23:03.282Z,2.68
2022-12-24T21:25:59.700Z,2.87
2022-12-24T21:28:47.054Z,3.14
2022-12-24T21:31:32.972Z,3.13
2022-12-24T21:34:19.299Z,2.79
2022-12-24T21:37:04.843Z,2.86
2022-12-24T21:39:50.624Z,2.61
2022-12-24T21:42:37.162Z,2.69
2022-12-24T21:45:23.590Z,2.94
2022-12-24T21:48:29.262Z,3.04
2022-12-24T21:51:15.502Z,2.73
2022-12-24T21:54:20.055Z,2.81
2022-12-24T21:57:26.741Z,2.92
2022-12-24T22:00:22.044Z,2.84
2022-12-24T22:03:08.520Z,2.80
2022-12-24T22:05:58.623Z,2.70
2022-12-24T22:09:03.458Z,3.27
2022-12-24T22:11:54.331Z,3.27
2022-12-24T22:14:41.398Z,3.01
2022-12-24T22:17:28.592Z,3.05
2022-12-24T22:20:14.925Z,3.29
2022-12-24T22:23:00.483Z,3.00
2022-12-24T22:25:48.146Z,2.64
2022-12-24T22:28:35.804Z,2.72
2022-12-24T22:31:24.045Z,2.92
2022-12-24T22:34:10.174Z,3.00
2022-12-24T22:36:57.234Z,2.90
2022-12-24T22:39:43.938Z,2.68
2022-12-24T22:42:33.090Z,3.08
2022-12-24T22:45:22.395Z,3.36
2022-12-24T22:48:10.595Z,3.38
2022-12-24T22:50:57.078Z,2.94
2022-12-24T22:53:43.767Z,2.89
2022-12-24T22:56:29.883Z,2.84
2022-12-24T22:59:18.035Z,2.86
2022-12-24T23:02:05.885Z,3.19
2022-12-24T23:04:53.344Z,3.10
2022-12-24T23:07:39.389Z,3.20
2022-12-24T23:10:25.993Z,3.51
2022-12-24T23:13:32.858Z,3.06
2022-12-24T23:16:19.442Z,3.10
2022-12-24T23:19:06.598Z,3.30
2022-12-24T23:21:53.029Z,2.83
2022-12-24T23:24:39.512Z,3.12
2022-12-24T23:27:27.441Z,3.00
2022-12-24T23:30:13.509Z,3.42
2022-12-24T23:33:00.180Z,2.84
2022-12-24T23:35:46.204Z,3.60
2022-12-24T23:38:33.796Z,3.33
2022-12-24T23:41:20.430Z,3.34
2022-12-24T23:44:06.690Z,2.97
2022-12-24T23:46:52.613Z,3.49
2022-12-24T23:49:38.714Z,3.15
2022-12-24T23:52:24.982Z,3.65
2022-12-24T23:55:12.552Z,3.27
2022-12-24T23:57:58.379Z,3.64
